createdAt,value
2019-01-12T00:00:44.660Z,2.20
2019-01-12T00:03:14.099Z,1.90
2019-01-12T00:05:43.487Z,2.40
2019-01-12T00:08:12.898Z,2.50
2019-01-12T00:10:42.258Z,2.20
2019-01-12T00:13:11.646Z,3.70
2019-01-12T00:15:41.007Z,2.60
2019-01-12T00:18:10.404Z,2.50
2019-01-12T00:20:39.757Z,2.57
2019-01-12T00:23:09.083Z,2.87
2019-01-12T00:25:38.472Z,2.83
2019-01-12T00:28:07.842Z,2.40
2019-01-12T00:30:37.405Z,2.83
2019-01-12T00:33:06.770Z,2.60
2019-01-12T00:35:36.210Z,2.70
2019-01-12T00:38:05.562Z,3.67
2019-01-12T00:40:34.965Z,3.17
2019-01-12T00:43:04.319Z,2.73
2019-01-12T00:45:33.713Z,2.83
2019-01-12T00:48:03.076Z,3.20
2019-01-12T00:50:32.523Z,2.97
2019-01-12T00:53:01.856Z,2.50
2019-01-12T00:55:31.267Z,2.80
2019-01-12T00:58:00.609Z,3.07
2019-01-12T01:00:30.034Z,2.57
2019-01-12T01:02:59.386Z,3.27
2019-01-12T01:05:28.804Z,3.03
2019-01-12T01:07:58.238Z,2.83
2019-01-12T01:10:27.641Z,2.97
2019-01-12T01:12:56.983Z,3.13
2019-01-12T01:15:26.361Z,2.80
2019-01-12T01:17:55.709Z,1.83
2019-01-12T01:20:25.136Z,3.03
2019-01-12T01:22:54.487Z,2.47
2019-01-12T01:25:23.907Z,3.13
2019-01-12T01:27:53.283Z,1.90
2019-01-12T01:30:22.651Z,2.10
2019-01-12T01:32:52.066Z,1.13
2019-01-12T01:35:21.455Z,1.37
2019-01-12T01:37:50.872Z,1.43
2019-01-12T01:40:20.214Z,1.87
2019-01-12T01:42:49.649Z,1.83
2019-01-12T01:45:19.052Z,1.27
2019-01-12T01:47:48.460Z,1.83
2019-01-12T01:50:17.810Z,1.53
2019-01-12T01:52:48.408Z,1.30
2019-01-12T01:55:17.876Z,1.83
2019-01-12T01:57:47.416Z,1.60
2019-01-12T02:00:18.212Z,1.50
2019-01-12T02:02:47.637Z,1.23
2019-01-12T02:05:17.021Z,1.30
2019-01-12T02:07:46.445Z,1.40
2019-01-12T02:10:22.959Z,1.40
2019-01-12T02:12:52.340Z,1.53
2019-01-12T02:15:23.135Z,1.50
2019-01-12T02:17:52.553Z,0.97
2019-01-12T02:20:23.189Z,1.13
2019-01-12T02:22:52.727Z,1.60
2019-01-12T02:25:22.112Z,1.63
2019-01-12T02:27:51.527Z,1.20
2019-01-12T02:30:22.974Z,1.23
2019-01-12T02:32:52.399Z,1.50
2019-01-12T02:35:21.749Z,1.10
2019-01-12T02:37:51.190Z,0.83
2019-01-12T02:40:20.542Z,0.93
2019-01-12T02:42:49.966Z,0.87
2019-01-12T02:45:19.319Z,0.60
2019-01-12T02:47:48.760Z,0.77
2019-01-12T02:50:18.106Z,0.40
2019-01-12T02:52:47.528Z,0.77
2019-01-12T02:55:16.926Z,0.80
2019-01-12T02:57:46.288Z,0.80
2019-01-12T03:00:17.760Z,0.60
2019-01-12T03:02:47.153Z,0.93
2019-01-12T03:05:16.508Z,0.80
2019-01-12T03:07:45.875Z,0.67
2019-01-12T03:10:16.645Z,0.87
2019-01-12T03:12:46.000Z,1.07
2019-01-12T03:15:17.515Z,0.90
2019-01-12T03:17:46.942Z,1.00
2019-01-12T03:20:17.680Z,1.40
2019-01-12T03:22:47.128Z,1.53
2019-01-12T03:25:18.754Z,0.97
2019-01-12T03:27:47.654Z,1.17
2019-01-12T03:30:18.686Z,1.37
2019-01-12T03:32:48.190Z,1.47
2019-01-12T03:35:17.572Z,1.77
2019-01-12T03:37:47.063Z,1.17
2019-01-12T03:40:18.459Z,1.00
2019-01-12T03:42:47.872Z,1.30
2019-01-12T03:45:18.124Z,1.30
2019-01-12T03:47:47.519Z,1.93
2019-01-12T03:50:16.950Z,1.67
2019-01-12T03:52:46.361Z,1.70
2019-01-12T03:55:15.770Z,2.03
2019-01-12T03:57:45.179Z,2.30
2019-01-12T04:00:22.853Z,1.90
2019-01-12T04:02:52.277Z,1.90
2019-01-12T04:05:21.663Z,1.37
2019-01-12T04:07:51.041Z,1.17
2019-01-12T04:10:20.476Z,1.43
2019-01-12T04:12:49.849Z,2.03
2019-01-12T04:15:19.258Z,1.63
2019-01-12T04:17:48.600Z,1.23
2019-01-12T04:20:18.493Z,1.97
2019-01-12T04:22:47.881Z,1.80
2019-01-12T04:25:17.280Z,1.77
2019-01-12T04:27:46.689Z,1.40
2019-01-12T04:30:17.926Z,1.57
2019-01-12T04:32:47.299Z,1.37
2019-01-12T04:35:16.827Z,1.13
2019-01-12T04:37:46.192Z,0.80
2019-01-12T04:40:20.047Z,1.47
2019-01-12T04:42:49.418Z,1.40
2019-01-12T04:45:18.819Z,1.30
2019-01-12T04:47:48.189Z,1.10
2019-01-12T04:50:18.131Z,1.03
2019-01-12T04:52:47.559Z,0.90
2019-01-12T04:55:17.064Z,0.90
2019-01-12T04:57:46.431Z,1.33
2019-01-12T05:00:19.491Z,0.70
2019-01-12T05:02:48.891Z,0.70
2019-01-12T05:05:18.279Z,1.37
2019-01-12T05:07:47.695Z,0.70
2019-01-12T05:10:17.090Z,0.93
2019-01-12T05:12:46.469Z,1.10
2019-01-12T05:15:16.207Z,1.03
2019-01-12T05:17:45.581Z,1.20
2019-01-12T05:20:19.529Z,1.70
2019-01-12T05:22:48.977Z,0.93
2019-01-12T05:25:18.460Z,1.20
2019-01-12T05:27:47.849Z,1.17
2019-01-12T05:30:21.754Z,1.20
2019-01-12T05:32:51.393Z,0.97
2019-01-12T05:35:20.815Z,1.50
2019-01-12T05:37:50.163Z,0.77
2019-01-12T05:40:19.599Z,0.67
2019-01-12T05:42:48.932Z,1.10
2019-01-12T05:45:18.354Z,1.47
2019-01-12T05:47:47.736Z,1.33
2019-01-12T05:50:17.126Z,1.37
2019-01-12T05:52:46.485Z,1.10
2019-01-12T05:55:15.878Z,0.90
2019-01-12T05:57:45.221Z,1.23
2019-01-12T06:00:19.404Z,1.47
2019-01-12T06:02:48.749Z,1.00
2019-01-12T06:05:18.127Z,1.00
2019-01-12T06:07:47.535Z,0.93
2019-01-12T06:10:16.886Z,1.30
2019-01-12T06:12:46.318Z,1.20
2019-01-12T06:15:15.818Z,1.37
2019-01-12T06:17:45.242Z,1.53
2019-01-12T06:20:15.454Z,1.20
2019-01-12T06:22:44.822Z,1.07
2019-01-12T06:25:14.199Z,1.20
2019-01-12T06:27:43.627Z,0.70
2019-01-12T06:30:15.551Z,1.23
2019-01-12T06:32:44.948Z,0.70
2019-01-12T06:35:14.339Z,1.20
2019-01-12T06:37:43.738Z,1.37
2019-01-12T06:40:30.991Z,1.17
2019-01-12T06:42:59.228Z,1.60
2019-01-12T06:45:27.397Z,0.80
2019-01-12T06:47:55.622Z,0.80
2019-01-12T06:50:23.846Z,0.80
2019-01-12T06:52:52.087Z,1.10
2019-01-12T06:55:20.261Z,1.20
2019-01-12T06:57:48.502Z,1.17
2019-01-12T07:00:17.551Z,0.93
2019-01-12T07:02:45.799Z,1.30
2019-01-12T07:05:14.021Z,1.17
2019-01-12T07:07:42.203Z,1.50
2019-01-12T07:10:10.772Z,1.07
2019-01-12T07:12:38.929Z,1.20
2019-01-12T07:15:08.046Z,1.60
2019-01-12T07:17:36.252Z,1.70
2019-01-12T07:20:05.234Z,1.27
2019-01-12T07:22:33.446Z,1.27
2019-01-12T07:25:01.701Z,1.17
2019-01-12T07:27:29.882Z,1.30
2019-01-12T07:29:58.117Z,1.23
2019-01-12T07:32:26.303Z,1.60
2019-01-12T07:34:54.563Z,1.73
2019-01-12T07:37:22.745Z,1.83
2019-01-12T07:39:50.985Z,2.20
2019-01-12T07:42:19.179Z,1.87
2019-01-12T07:44:47.419Z,1.67
2019-01-12T07:47:15.635Z,1.10
2019-01-12T07:49:43.881Z,1.10
2019-01-12T07:52:12.466Z,1.30
2019-01-12T07:54:40.739Z,1.10
2019-01-12T07:57:08.916Z,1.47
2019-01-12T07:59:37.146Z,1.20
2019-01-12T08:02:05.364Z,1.27
2019-01-12T08:04:33.542Z,2.13
2019-01-12T08:07:01.743Z,1.50
2019-01-12T08:09:29.998Z,0.90
2019-01-12T08:11:58.195Z,1.60
2019-01-12T08:14:26.430Z,1.80
2019-01-12T08:16:54.679Z,1.87
2019-01-12T08:19:22.922Z,1.53
2019-01-12T08:21:51.112Z,1.47
2019-01-12T08:24:19.335Z,1.00
2019-01-12T08:26:47.923Z,1.10
2019-01-12T08:29:16.147Z,0.90
2019-01-12T08:31:44.384Z,1.30
2019-01-12T08:34:12.581Z,0.90
2019-01-12T08:36:40.791Z,0.67
2019-01-12T08:39:09.019Z,1.20
2019-01-12T08:41:37.238Z,1.00
2019-01-12T08:44:05.422Z,1.10
2019-01-12T08:46:33.675Z,0.80
2019-01-12T08:49:01.918Z,1.03
2019-01-12T08:51:30.143Z,1.10
2019-01-12T08:53:58.391Z,1.30
2019-01-12T08:56:26.647Z,1.20
2019-01-12T08:58:54.802Z,1.03
2019-01-12T09:01:23.039Z,1.30
2019-01-12T09:03:51.314Z,1.43
2019-01-12T09:06:19.551Z,1.30
2019-01-12T09:08:47.755Z,1.50
2019-01-12T09:11:16.038Z,1.10
2019-01-12T09:13:44.223Z,0.77
2019-01-12T09:16:12.462Z,1.40
2019-01-12T09:18:40.670Z,1.30
2019-01-12T09:21:08.917Z,1.33
2019-01-12T09:23:37.088Z,1.00
2019-01-12T09:26:05.310Z,1.40
2019-01-12T09:28:33.515Z,1.50
2019-01-12T09:31:01.814Z,1.20
2019-01-12T09:33:29.993Z,1.60
2019-01-12T09:35:58.219Z,1.53
2019-01-12T09:38:26.495Z,1.37
2019-01-12T09:40:54.710Z,2.23
2019-01-12T09:43:22.933Z,1.93
2019-01-12T09:45:51.158Z,2.07
2019-01-12T09:48:19.415Z,2.00
2019-01-12T09:50:47.661Z,2.10
2019-01-12T09:53:15.854Z,2.37
2019-01-12T09:55:44.043Z,2.33
2019-01-12T09:58:12.296Z,1.57
2019-01-12T10:00:40.486Z,2.13
2019-01-12T10:03:08.724Z,2.60
2019-01-12T10:05:36.891Z,2.97
2019-01-12T10:08:05.126Z,2.10
2019-01-12T10:10:33.311Z,1.73
2019-01-12T10:13:01.531Z,2.70
2019-01-12T10:15:29.713Z,2.67
2019-01-12T10:17:57.942Z,2.10
2019-01-12T10:20:26.131Z,2.13
2019-01-12T10:22:54.362Z,2.57
2019-01-12T10:25:22.541Z,2.13
2019-01-12T10:27:50.775Z,3.00
2019-01-12T10:30:20.095Z,2.40
2019-01-12T10:32:48.341Z,3.03
2019-01-12T10:35:16.506Z,4.30
2019-01-12T10:37:44.735Z,4.40
2019-01-12T10:40:13.018Z,3.30
2019-01-12T10:42:41.242Z,3.50
2019-01-12T10:45:10.216Z,3.07
2019-01-12T10:47:38.466Z,2.90
2019-01-12T10:50:08.143Z,2.47
2019-01-12T10:52:36.361Z,3.80
2019-01-12T10:55:05.022Z,3.97
2019-01-12T10:57:33.240Z,3.47
2019-01-12T11:00:01.522Z,3.30
2019-01-12T11:02:29.676Z,5.00
2019-01-12T11:04:57.916Z,4.00
2019-01-12T11:07:26.131Z,4.07
2019-01-12T11:09:54.358Z,3.37
2019-01-12T11:12:22.584Z,4.17
2019-01-12T11:14:51.572Z,3.23
2019-01-12T11:17:19.778Z,3.10
2019-01-12T11:19:48.007Z,3.73
2019-01-12T11:22:16.195Z,3.17
2019-01-12T11:24:44.432Z,5.00
2019-01-12T11:27:12.639Z,4.60
2019-01-12T11:29:40.862Z,5.50
2019-01-12T11:32:09.058Z,4.20
2019-01-12T11:34:38.387Z,4.57
2019-01-12T11:37:06.615Z,4.27
2019-01-12T11:39:34.915Z,5.00
2019-01-12T11:42:03.138Z,3.80
2019-01-12T11:44:31.645Z,4.60
2019-01-12T11:47:00.128Z,3.60
2019-01-12T11:49:28.374Z,4.63
2019-01-12T11:51:56.551Z,3.63
2019-01-12T11:54:24.775Z,5.03
2019-01-12T11:56:52.960Z,3.40
2019-01-12T11:59:21.202Z,3.93
2019-01-12T12:01:49.398Z,4.57
2019-01-12T12:04:17.658Z,3.57
2019-01-12T12:06:45.892Z,3.70
2019-01-12T12:09:14.083Z,4.90
2019-01-12T12:11:42.330Z,2.60
2019-01-12T12:14:10.535Z,3.67
2019-01-12T12:16:38.791Z,3.63
2019-01-12T12:19:06.970Z,2.90
2019-01-12T12:21:35.190Z,4.33
2019-01-12T12:24:03.400Z,2.90
2019-01-12T12:26:31.687Z,3.13
2019-01-12T12:28:59.899Z,3.70
2019-01-12T12:31:28.146Z,3.73
2019-01-12T12:33:56.360Z,2.80
2019-01-12T12:36:24.614Z,3.53
2019-01-12T12:38:52.843Z,3.80
2019-01-12T12:41:21.076Z,2.60
2019-01-12T12:43:49.261Z,3.20
2019-01-12T12:46:17.518Z,2.90
2019-01-12T12:48:45.679Z,3.83
2019-01-12T12:51:13.910Z,3.63
2019-01-12T12:53:42.113Z,2.80
2019-01-12T12:56:10.354Z,2.57
2019-01-12T12:58:38.549Z,2.77
2019-01-12T13:01:06.769Z,3.40
2019-01-12T13:03:34.955Z,2.90
2019-01-12T13:06:03.294Z,3.80
2019-01-12T13:08:31.462Z,3.40
2019-01-12T13:10:59.658Z,3.70
2019-01-12T13:13:27.908Z,3.40
2019-01-12T13:15:56.162Z,4.13
2019-01-12T13:18:24.406Z,4.43
2019-01-12T13:20:52.609Z,4.07
2019-01-12T13:23:20.862Z,4.27
2019-01-12T13:25:49.035Z,3.27
2019-01-12T13:28:17.274Z,3.23
2019-01-12T13:30:45.462Z,4.07
2019-01-12T13:33:13.694Z,2.63
2019-01-12T13:35:41.884Z,3.53
2019-01-12T13:38:10.106Z,3.40
2019-01-12T13:40:38.315Z,3.03
2019-01-12T13:43:06.593Z,3.70
2019-01-12T13:45:34.789Z,3.97
2019-01-12T13:48:03.020Z,3.97
2019-01-12T13:50:31.380Z,4.40
2019-01-12T13:52:59.627Z,3.07
2019-01-12T13:55:27.816Z,3.33
2019-01-12T13:57:56.090Z,4.47
2019-01-12T14:00:34.171Z,3.30
2019-01-12T14:03:02.481Z,4.17
2019-01-12T14:05:30.709Z,4.13
2019-01-12T14:07:58.924Z,4.70
2019-01-12T14:10:27.123Z,4.43
2019-01-12T14:12:55.350Z,2.97
2019-01-12T14:15:23.567Z,4.70
2019-01-12T14:17:51.766Z,3.47
2019-01-12T14:20:23.752Z,2.73
2019-01-12T14:22:51.949Z,3.53
2019-01-12T14:25:20.185Z,3.87
2019-01-12T14:27:54.216Z,2.90
2019-01-12T14:30:18.499Z,3.27
2019-01-12T14:32:46.678Z,3.33
2019-01-12T14:35:16.366Z,3.63
2019-01-12T14:37:44.554Z,3.00
2019-01-12T14:40:13.775Z,4.77
2019-01-12T14:42:42.001Z,3.90
2019-01-12T14:45:11.873Z,3.80
2019-01-12T14:47:40.062Z,3.90
2019-01-12T14:50:09.042Z,3.50
2019-01-12T14:52:37.224Z,4.07
2019-01-12T14:55:06.283Z,4.00
2019-01-12T14:57:35.476Z,3.80
2019-01-12T15:00:04.623Z,5.30
2019-01-12T15:02:32.911Z,4.53
2019-01-12T15:05:01.156Z,4.90
2019-01-12T15:07:29.374Z,5.10
2019-01-12T15:09:57.623Z,3.90
2019-01-12T15:12:25.817Z,4.47
2019-01-12T15:14:54.047Z,7.50
2019-01-12T15:17:22.272Z,8.97
2019-01-12T15:19:50.535Z,6.80
2019-01-12T15:22:18.705Z,5.33
2019-01-12T15:24:46.946Z,5.00
2019-01-12T15:27:15.191Z,3.57
2019-01-12T15:29:43.472Z,3.37
2019-01-12T15:32:11.659Z,3.50
2019-01-12T15:34:39.862Z,5.43
2019-01-12T15:37:08.118Z,5.73
2019-01-12T15:39:36.354Z,3.60
2019-01-12T15:42:04.612Z,3.70
2019-01-12T15:44:32.805Z,4.07
2019-01-12T15:47:01.016Z,4.30
2019-01-12T15:49:29.203Z,3.27
2019-01-12T15:51:57.487Z,2.93
2019-01-12T15:54:25.663Z,3.37
2019-01-12T15:56:53.884Z,6.70
2019-01-12T15:59:22.062Z,6.60
2019-01-12T16:01:50.342Z,3.33
2019-01-12T16:04:18.532Z,3.53
2019-01-12T16:06:53.028Z,3.10
2019-01-12T16:09:21.212Z,2.67
2019-01-12T16:11:49.463Z,2.30
2019-01-12T16:14:17.682Z,3.20
2019-01-12T16:16:45.930Z,2.30
2019-01-12T16:19:14.133Z,2.00
2019-01-12T16:21:42.355Z,2.00
2019-01-12T16:24:10.595Z,2.07
2019-01-12T16:26:38.878Z,1.93
2019-01-12T16:29:07.102Z,2.30
2019-01-12T16:31:35.321Z,2.60
2019-01-12T16:34:03.497Z,2.03
2019-01-12T16:36:31.724Z,2.00
2019-01-12T16:38:59.930Z,2.90
2019-01-12T16:41:28.155Z,1.73
2019-01-12T16:43:56.363Z,1.80
2019-01-12T16:46:24.590Z,2.03
2019-01-12T16:48:52.769Z,1.03
2019-01-12T16:51:21.005Z,1.20
2019-01-12T16:53:49.220Z,1.00
2019-01-12T16:56:17.392Z,2.20
2019-01-12T16:58:45.622Z,2.13
2019-01-12T17:01:13.819Z,1.97
2019-01-12T17:03:42.030Z,2.00
2019-01-12T17:06:10.243Z,2.40
2019-01-12T17:08:38.481Z,1.57
2019-01-12T17:11:06.677Z,1.77
2019-01-12T17:13:34.902Z,1.80
2019-01-12T17:16:03.131Z,1.30
2019-01-12T17:18:31.378Z,2.20
2019-01-12T17:20:59.558Z,3.27
2019-01-12T17:23:27.790Z,1.53
2019-01-12T17:25:55.982Z,1.17
2019-01-12T17:28:24.232Z,1.43
2019-01-12T17:30:52.421Z,1.70
2019-01-12T17:33:20.626Z,1.73
2019-01-12T17:35:48.803Z,2.03
2019-01-12T17:38:17.085Z,1.60
2019-01-12T17:40:45.260Z,1.90
2019-01-12T17:43:13.482Z,2.30
2019-01-12T17:45:41.752Z,1.37
2019-01-12T17:48:09.975Z,1.80
2019-01-12T17:50:38.198Z,1.90
2019-01-12T17:53:06.459Z,2.03
2019-01-12T17:55:34.639Z,2.70
2019-01-12T17:58:02.873Z,4.77
2019-01-12T18:01:01.954Z,2.20
2019-01-12T18:03:30.182Z,1.83
2019-01-12T18:05:58.387Z,2.27
2019-01-12T18:08:26.852Z,1.93
2019-01-12T18:10:55.043Z,2.83
2019-01-12T18:13:23.307Z,2.90
2019-01-12T18:15:51.507Z,1.70
2019-01-12T18:18:19.807Z,1.47
2019-01-12T18:20:47.995Z,2.37
2019-01-12T18:23:16.181Z,2.07
2019-01-12T18:25:44.439Z,2.00
2019-01-12T18:28:12.683Z,2.23
2019-01-12T18:30:40.945Z,3.53
2019-01-12T18:33:09.163Z,5.03
2019-01-12T18:35:37.391Z,3.37
2019-01-12T18:38:05.583Z,3.37
2019-01-12T18:40:33.823Z,2.90
2019-01-12T18:43:02.023Z,1.80
2019-01-12T18:45:30.239Z,2.50
2019-01-12T18:47:58.422Z,2.20
2019-01-12T18:50:26.918Z,2.60
2019-01-12T18:52:55.137Z,1.83
2019-01-12T18:55:23.396Z,1.90
2019-01-12T18:57:51.570Z,2.50
2019-01-12T19:00:20.783Z,2.70
2019-01-12T19:02:48.963Z,1.80
2019-01-12T19:05:17.234Z,1.87
2019-01-12T19:07:45.418Z,1.67
2019-01-12T19:10:13.778Z,1.43
2019-01-12T19:12:41.995Z,1.53
2019-01-12T19:15:11.842Z,2.97
2019-01-12T19:17:40.033Z,1.93
2019-01-12T19:20:09.282Z,1.13
2019-01-12T19:22:37.493Z,2.83
2019-01-12T19:25:05.931Z,0.73
2019-01-12T19:27:34.202Z,2.17
2019-01-12T19:30:02.402Z,5.70
2019-01-12T19:32:30.682Z,1.63
2019-01-12T19:34:58.862Z,1.17
2019-01-12T19:37:27.092Z,1.23
2019-01-12T19:39:55.287Z,1.10
2019-01-12T19:42:23.525Z,1.40
2019-01-12T19:44:51.694Z,0.80
2019-01-12T19:47:19.962Z,0.67
2019-01-12T19:49:48.155Z,1.57
2019-01-12T19:52:16.406Z,0.40
2019-01-12T19:54:44.590Z,0.70
2019-01-12T19:57:12.814Z,0.77
2019-01-12T19:59:41.014Z,1.10
2019-01-12T20:02:09.264Z,1.03
2019-01-12T20:04:37.450Z,0.57
2019-01-12T20:07:05.760Z,0.60
2019-01-12T20:09:33.955Z,1.13
2019-01-12T20:12:02.189Z,1.17
2019-01-12T20:14:30.347Z,1.23
2019-01-12T20:16:58.711Z,1.43
2019-01-12T20:19:26.902Z,1.10
2019-01-12T20:21:56.421Z,1.07
2019-01-12T20:24:24.723Z,1.17
2019-01-12T20:26:52.918Z,1.60
2019-01-12T20:29:21.511Z,0.70
2019-01-12T20:32:11.810Z,0.97
2019-01-12T20:34:44.887Z,0.90
2019-01-12T20:37:28.202Z,2.37
2019-01-12T20:40:24.523Z,1.30
2019-01-12T20:43:17.749Z,1.23
2019-01-12T20:46:00.022Z,1.67
2019-01-12T20:48:34.911Z,1.83
2019-01-12T20:51:20.190Z,1.63
2019-01-12T20:54:16.642Z,1.20
2019-01-12T20:57:09.890Z,1.43
2019-01-12T21:00:12.370Z,1.63
2019-01-12T21:02:45.331Z,3.00
2019-01-12T21:05:18.710Z,0.50
2019-01-12T21:08:07.370Z,1.10
2019-01-12T21:10:53.462Z,0.60
2019-01-12T21:13:37.937Z,1.13
2019-01-12T21:16:11.282Z,1.87
2019-01-12T21:18:39.605Z,1.20
2019-01-12T21:21:07.783Z,1.03
2019-01-12T21:23:36.007Z,2.83
2019-01-12T21:26:04.191Z,1.70
2019-01-12T21:28:32.432Z,1.13
2019-01-12T21:31:00.650Z,1.27
2019-01-12T21:33:28.959Z,2.10
2019-01-12T21:35:57.218Z,2.90
2019-01-12T21:38:25.430Z,2.13
2019-01-12T21:40:53.691Z,1.20
2019-01-12T21:43:22.016Z,1.80
2019-01-12T21:45:50.210Z,2.53
2019-01-12T21:48:18.391Z,1.50
2019-01-12T21:50:46.628Z,1.67
2019-01-12T21:53:14.819Z,1.07
2019-01-12T21:55:43.045Z,1.20
2019-01-12T21:58:11.220Z,1.30
2019-01-12T22:00:39.547Z,1.03
2019-01-12T22:03:07.730Z,1.47
2019-01-12T22:05:35.987Z,1.60
2019-01-12T22:08:04.202Z,1.30
2019-01-12T22:10:32.441Z,1.30
2019-01-12T22:13:01.702Z,0.87
2019-01-12T22:15:29.943Z,1.20
2019-01-12T22:17:58.110Z,0.80
2019-01-12T22:20:26.362Z,1.10
2019-01-12T22:22:54.534Z,0.90
2019-01-12T22:25:22.764Z,1.10
2019-01-12T22:27:50.940Z,0.90
2019-01-12T22:30:19.305Z,0.80
2019-01-12T22:32:47.494Z,1.20
2019-01-12T22:35:15.723Z,1.07
2019-01-12T22:37:44.166Z,1.67
2019-01-12T22:40:14.110Z,1.60
2019-01-12T22:42:42.298Z,1.57
2019-01-12T22:45:10.482Z,1.30
2019-01-12T22:47:38.719Z,1.47
2019-01-12T22:50:07.499Z,1.23
2019-01-12T22:52:35.738Z,1.23
2019-01-12T22:55:04.002Z,1.20
2019-01-12T22:57:32.232Z,1.03
2019-01-12T23:00:00.418Z,1.03
2019-01-12T23:02:28.682Z,1.70
2019-01-12T23:04:56.883Z,1.10
2019-01-12T23:07:25.115Z,1.30
2019-01-12T23:09:53.347Z,1.50
2019-01-12T23:12:21.570Z,1.20
2019-01-12T23:14:49.839Z,1.83
2019-01-12T23:17:18.067Z,1.97
2019-01-12T23:19:46.264Z,1.37
2019-01-12T23:22:14.522Z,1.60
2019-01-12T23:24:42.734Z,1.30
2019-01-12T23:27:11.075Z,1.53
2019-01-12T23:29:39.310Z,1.10
2019-01-12T23:32:07.531Z,1.10
2019-01-12T23:34:35.724Z,1.47
2019-01-12T23:37:04.073Z,1.30
2019-01-12T23:39:32.248Z,1.70
2019-01-12T23:42:00.438Z,1.60
2019-01-12T23:44:28.662Z,1.40
2019-01-12T23:46:56.854Z,0.90
2019-01-12T23:49:25.134Z,1.10
2019-01-12T23:51:53.281Z,1.10
2019-01-12T23:54:21.531Z,1.10
2019-01-12T23:56:49.739Z,0.90
2019-01-12T23:59:17.990Z,0.77
